DLH123 LFKB-LIRP
Flight info
| Callsign | DLH123 |
|---|---|
| Flight time | 0h 21m |
| Altitude | 14000 |
| Route | MOUL2V MOULE DCT NORNI |
| Aircraft | A320/M-V/N |
Departure
| Time | 2026-04-28 17:08 |
|---|---|
| Airport | Bastia-Poretta International airport (LFKB) |
Arrival
| Time | 2026-04-28 17:30 |
|---|---|
| Airport | Pisa International Airport (LIRP) |
| Time | Latitude | Longitude | Altitude | Speed | Heading |
|---|---|---|---|---|---|
| 2026-04-28 16:47 | 42.54778 | 9.48175 | 33 ft | 0 kts | 253° |
| 2026-04-28 16:48 | 42.54778 | 9.48176 | 33 ft | 0 kts | 253° |
| 2026-04-28 17:00 | 42.54779 | 9.48179 | 35 ft | 2 kts | 253° |
| 2026-04-28 17:00 | 42.54786 | 9.48213 | 35 ft | 4 kts | 253° |
| 2026-04-28 17:01 | 42.54795 | 9.48247 | 32 ft | 4 kts | 240° |
| 2026-04-28 17:01 | 42.54812 | 9.48274 | 33 ft | 4 kts | 206° |
| 2026-04-28 17:01 | 42.54831 | 9.48278 | 34 ft | 1 kts | 163° |
| 2026-04-28 17:01 | 42.54835 | 9.48277 | 34 ft | 2 kts | 163° |
| 2026-04-28 17:03 | 42.54835 | 9.48276 | 34 ft | 0 kts | 163° |
| 2026-04-28 17:05 | 42.54738 | 9.48317 | 35 ft | 14 kts | 162° |
| 2026-04-28 17:05 | 42.54629 | 9.48363 | 35 ft | 19 kts | 162° |
| 2026-04-28 17:05 | 42.54496 | 9.48420 | 35 ft | 19 kts | 171° |
| 2026-04-28 17:06 | 42.54334 | 9.48445 | 35 ft | 21 kts | 162° |
| 2026-04-28 17:06 | 42.54305 | 9.48458 | 35 ft | 22 kts | 162° |
| 2026-04-28 17:06 | 42.54129 | 9.48667 | 35 ft | 9 kts | 84° |
| 2026-04-28 17:07 | 42.54131 | 9.48679 | 35 ft | 0 kts | 80° |
| 2026-04-28 17:07 | 42.54131 | 9.48682 | 35 ft | 2 kts | 79° |
| 2026-04-28 17:07 | 42.54142 | 9.48718 | 35 ft | 5 kts | 59° |
| 2026-04-28 17:07 | 42.54210 | 9.48792 | 35 ft | 21 kts | 20° |
| 2026-04-28 17:08 | 42.54399 | 9.48732 | 34 ft | 44 kts | 344° |
| 2026-04-28 17:08 | 42.55004 | 9.48481 | 36 ft | 133 kts | 343° |
| 2026-04-28 17:08 | 42.56096 | 9.48011 | 151 ft | 188 kts | 343° |
| 2026-04-28 17:08 | 42.57399 | 9.47456 | 812 ft | 203 kts | 341° |
| 2026-04-28 17:09 | 42.58757 | 9.46950 | 1530 ft | 204 kts | 352° |
| 2026-04-28 17:09 | 42.60081 | 9.47361 | 2346 ft | 201 kts | 36° |
| 2026-04-28 17:09 | 42.60786 | 9.48926 | 2987 ft | 198 kts | 89° |
| 2026-04-28 17:09 | 42.60447 | 9.50683 | 3653 ft | 194 kts | 120° |
| 2026-04-28 17:10 | 42.59777 | 9.52349 | 4229 ft | 210 kts | 119° |
| 2026-04-28 17:10 | 42.59166 | 9.54254 | 4770 ft | 234 kts | 105° |
| 2026-04-28 17:10 | 42.59220 | 9.56589 | 5246 ft | 264 kts | 81° |
| 2026-04-28 17:10 | 42.59601 | 9.59107 | 6002 ft | 277 kts | 79° |
| 2026-04-28 17:11 | 42.60020 | 9.61693 | 6899 ft | 284 kts | 79° |
| 2026-04-28 17:11 | 42.60448 | 9.64330 | 7842 ft | 288 kts | 78° |
| 2026-04-28 17:11 | 42.60877 | 9.67005 | 8789 ft | 293 kts | 79° |
| 2026-04-28 17:11 | 42.61308 | 9.69733 | 9737 ft | 298 kts | 79° |
| 2026-04-28 17:12 | 42.61743 | 9.72521 | 10437 ft | 311 kts | 79° |
| 2026-04-28 17:12 | 42.62220 | 9.75506 | 10773 ft | 336 kts | 78° |
| 2026-04-28 17:12 | 42.62751 | 9.78670 | 11134 ft | 356 kts | 78° |
| 2026-04-28 17:12 | 42.63324 | 9.81987 | 11824 ft | 364 kts | 77° |
| 2026-04-28 17:13 | 42.63913 | 9.85361 | 12605 ft | 369 kts | 77° |
| 2026-04-28 17:13 | 42.64518 | 9.88819 | 13415 ft | 374 kts | 77° |
| 2026-04-28 17:13 | 42.65111 | 9.92236 | 13885 ft | 378 kts | 77° |
| 2026-04-28 17:13 | 42.65708 | 9.95720 | 14014 ft | 381 kts | 77° |
| 2026-04-28 17:14 | 42.66324 | 9.99338 | 14052 ft | 403 kts | 77° |
| 2026-04-28 17:14 | 42.66962 | 10.03103 | 14052 ft | 410 kts | 77° |
| 2026-04-28 17:14 | 42.67599 | 10.06886 | 14052 ft | 412 kts | 78° |
| 2026-04-28 17:14 | 42.68235 | 10.10682 | 14052 ft | 412 kts | 78° |
| 2026-04-28 17:15 | 42.68869 | 10.14475 | 14055 ft | 412 kts | 78° |
| 2026-04-28 17:15 | 42.69300 | 10.17043 | 14054 ft | 412 kts | 77° |
| 2026-04-28 17:15 | 42.69938 | 10.20837 | 14054 ft | 412 kts | 77° |
| 2026-04-28 17:15 | 42.70572 | 10.24634 | 14054 ft | 412 kts | 77° |
| 2026-04-28 17:16 | 42.71208 | 10.28387 | 14047 ft | 411 kts | 76° |
| 2026-04-28 17:16 | 42.72267 | 10.31987 | 14048 ft | 411 kts | 59° |
| 2026-04-28 17:16 | 42.74055 | 10.35017 | 14053 ft | 411 kts | 41° |
| 2026-04-28 17:16 | 42.76407 | 10.37191 | 14058 ft | 409 kts | 24° |
| 2026-04-28 17:17 | 42.79110 | 10.38332 | 14059 ft | 407 kts | 7° |
| 2026-04-28 17:17 | 42.81923 | 10.38373 | 14053 ft | 404 kts | 353° |
| 2026-04-28 17:17 | 42.84724 | 10.37988 | 14059 ft | 405 kts | 353° |
| 2026-04-28 17:17 | 42.87527 | 10.37600 | 14059 ft | 405 kts | 353° |
| 2026-04-28 17:18 | 42.90331 | 10.37213 | 14054 ft | 405 kts | 353° |
| 2026-04-28 17:18 | 42.93134 | 10.36828 | 14059 ft | 405 kts | 353° |
| 2026-04-28 17:18 | 42.95938 | 10.36439 | 14060 ft | 405 kts | 353° |
| 2026-04-28 17:18 | 42.98749 | 10.36048 | 14059 ft | 405 kts | 353° |
| 2026-04-28 17:19 | 43.01558 | 10.35661 | 14064 ft | 406 kts | 353° |
| 2026-04-28 17:19 | 43.04338 | 10.35284 | 14045 ft | 392 kts | 353° |
| 2026-04-28 17:19 | 43.06989 | 10.34930 | 14024 ft | 374 kts | 353° |
| 2026-04-28 17:19 | 43.09527 | 10.34587 | 13906 ft | 359 kts | 353° |
| 2026-04-28 17:20 | 43.11965 | 10.34252 | 13782 ft | 346 kts | 353° |
| 2026-04-28 17:20 | 43.13533 | 10.34037 | 13692 ft | 338 kts | 353° |
| 2026-04-28 17:20 | 43.16594 | 10.33615 | 13528 ft | 323 kts | 353° |
| 2026-04-28 17:20 | 43.18835 | 10.33304 | 12993 ft | 325 kts | 353° |
| 2026-04-28 17:21 | 43.21051 | 10.32698 | 12455 ft | 326 kts | 338° |
| 2026-04-28 17:21 | 43.23058 | 10.31343 | 11924 ft | 326 kts | 331° |
| 2026-04-28 17:21 | 43.25072 | 10.29870 | 11399 ft | 328 kts | 330° |
| 2026-04-28 17:22 | 43.29116 | 10.26885 | 10331 ft | 331 kts | 331° |
| 2026-04-28 17:22 | 43.31153 | 10.25381 | 9794 ft | 332 kts | 331° |
| 2026-04-28 17:22 | 43.33189 | 10.23879 | 9218 ft | 332 kts | 331° |
| 2026-04-28 17:23 | 43.36602 | 10.19780 | 8100 ft | 328 kts | 306° |
| 2026-04-28 17:23 | 43.37967 | 10.17275 | 7557 ft | 327 kts | 306° |
| 2026-04-28 17:23 | 43.39331 | 10.14798 | 7010 ft | 319 kts | 310° |
| 2026-04-28 17:23 | 43.41064 | 10.13054 | 6466 ft | 305 kts | 340° |
| 2026-04-28 17:24 | 43.43101 | 10.12790 | 5925 ft | 291 kts | 12° |
| 2026-04-28 17:24 | 43.44913 | 10.13890 | 5284 ft | 283 kts | 36° |
| 2026-04-28 17:24 | 43.46410 | 10.15569 | 4748 ft | 272 kts | 44° |
| 2026-04-28 17:24 | 43.47756 | 10.17332 | 4267 ft | 262 kts | 45° |
| 2026-04-28 17:25 | 43.49048 | 10.18996 | 4001 ft | 245 kts | 43° |
| 2026-04-28 17:25 | 43.51450 | 10.21872 | 3839 ft | 223 kts | 43° |
| 2026-04-28 17:25 | 43.52630 | 10.23215 | 3579 ft | 223 kts | 40° |
| 2026-04-28 17:26 | 43.53866 | 10.24509 | 3295 ft | 222 kts | 38° |
| 2026-04-28 17:26 | 43.55106 | 10.25780 | 3001 ft | 222 kts | 38° |
| 2026-04-28 17:26 | 43.56365 | 10.27070 | 2703 ft | 228 kts | 38° |
| 2026-04-28 17:26 | 43.57642 | 10.28380 | 2397 ft | 230 kts | 38° |
| 2026-04-28 17:27 | 43.58928 | 10.29700 | 2088 ft | 231 kts | 37° |
| 2026-04-28 17:27 | 43.60205 | 10.31012 | 1797 ft | 224 kts | 36° |
| 2026-04-28 17:27 | 43.61388 | 10.32230 | 1499 ft | 200 kts | 35° |
| 2026-04-28 17:27 | 43.62452 | 10.33324 | 1270 ft | 182 kts | 35° |
| 2026-04-28 17:28 | 43.63430 | 10.34331 | 1023 ft | 168 kts | 33° |
| 2026-04-28 17:28 | 43.65179 | 10.36132 | 624 ft | 147 kts | 34° |
| 2026-04-28 17:28 | 43.65988 | 10.36971 | 380 ft | 144 kts | 34° |
| 2026-04-28 17:29 | 43.66785 | 10.37797 | 259 ft | 143 kts | 32° |
| 2026-04-28 17:29 | 43.67574 | 10.38607 | 40 ft | 139 kts | 33° |
| 2026-04-28 17:29 | 43.68286 | 10.39322 | 18 ft | 105 kts | 36° |
| 2026-04-28 17:30 | 43.68949 | 10.40010 | 18 ft | 34 kts | 38° |
| 2026-04-28 17:30 | 43.69269 | 10.40300 | 20 ft | 15 kts | 338° |
| 2026-04-28 17:30 | 43.69344 | 10.40179 | 21 ft | 16 kts | 305° |
| 2026-04-28 17:31 | 43.69434 | 10.40096 | 20 ft | 19 kts | 351° |
| 2026-04-28 17:31 | 43.69660 | 10.40058 | 15 ft | 6 kts | 348° |
| 2026-04-28 17:32 | 43.69697 | 10.40020 | 15 ft | 2 kts | 9° |
| 2026-04-28 17:32 | 43.69712 | 10.40023 | 15 ft | 2 kts | 9° |
| 2026-04-28 17:32 | 43.69730 | 10.40027 | 15 ft | 3 kts | 9° |
| 2026-04-28 17:32 | 43.69746 | 10.40031 | 15 ft | 2 kts | 9° |
| 2026-04-28 17:33 | 43.69754 | 10.40032 | 15 ft | 0 kts | 9° |